sensor_id;sensor_type;location;lat;lon;timestamp;pressure;altitude;pressure_sealevel;temperature;humidity
23164;BME280;31429;42.674;23.350;2024-03-22T00:00:25;94859.03;;;6.07;77.42
23164;BME280;31429;42.674;23.350;2024-03-22T00:01:26;94864.06;;;6.10;78.03
23164;BME280;31429;42.674;23.350;2024-03-22T00:02:27;94859.06;;;6.05;80.38
23164;BME280;31429;42.674;23.350;2024-03-22T00:03:27;94861.63;;;6.04;81.04
23164;BME280;31429;42.674;23.350;2024-03-22T00:04:30;94864.06;;;6.08;84.53
23164;BME280;31429;42.674;23.350;2024-03-22T00:05:31;94858.16;;;6.08;80.22
23164;BME280;31429;42.674;23.350;2024-03-22T00:06:31;94865.97;;;5.99;80.57
23164;BME280;31429;42.674;23.350;2024-03-22T00:07:33;94863.59;;;5.90;82.16
23164;BME280;31429;42.674;23.350;2024-03-22T00:08:34;94857.56;;;5.95;83.00
23164;BME280;31429;42.674;23.350;2024-03-22T00:09:35;94850.09;;;5.88;82.13
23164;BME280;31429;42.674;23.350;2024-03-22T00:10:36;94862.00;;;5.82;82.43
23164;BME280;31429;42.674;23.350;2024-03-22T00:11:37;94863.00;;;5.74;83.81
23164;BME280;31429;42.674;23.350;2024-03-22T00:12:37;94865.50;;;5.75;86.27
23164;BME280;31429;42.674;23.350;2024-03-22T00:13:38;94865.41;;;5.82;86.25
23164;BME280;31429;42.674;23.350;2024-03-22T00:14:39;94859.56;;;5.76;86.33
23164;BME280;31429;42.674;23.350;2024-03-22T00:15:40;94864.72;;;5.72;85.64
23164;BME280;31429;42.674;23.350;2024-03-22T00:16:42;94857.13;;;5.72;87.86
23164;BME280;31429;42.674;23.350;2024-03-22T00:17:44;94858.69;;;5.77;88.84
23164;BME280;31429;42.674;23.350;2024-03-22T00:18:45;94857.75;;;5.83;88.80
23164;BME280;31429;42.674;23.350;2024-03-22T00:19:46;94861.13;;;5.85;86.82
23164;BME280;31429;42.674;23.350;2024-03-22T00:20:47;94859.41;;;5.87;86.87
23164;BME280;31429;42.674;23.350;2024-03-22T00:21:47;94858.53;;;5.90;88.54
23164;BME280;31429;42.674;23.350;2024-03-22T00:22:50;94856.88;;;5.87;86.73
23164;BME280;31429;42.674;23.350;2024-03-22T00:23:50;94862.03;;;5.79;89.05
23164;BME280;31429;42.674;23.350;2024-03-22T00:24:51;94857.72;;;5.86;90.12
23164;BME280;31429;42.674;23.350;2024-03-22T00:25:52;94856.00;;;5.90;90.18
23164;BME280;31429;42.674;23.350;2024-03-22T00:26:53;94856.88;;;5.86;88.69
23164;BME280;31429;42.674;23.350;2024-03-22T00:27:54;94862.94;;;5.77;87.60
23164;BME280;31429;42.674;23.350;2024-03-22T00:28:55;94856.41;;;5.62;86.80
23164;BME280;31429;42.674;23.350;2024-03-22T00:29:58;94861.72;;;5.50;87.87
23164;BME280;31429;42.674;23.350;2024-03-22T00:30:59;94861.88;;;5.40;89.06
23164;BME280;31429;42.674;23.350;2024-03-22T00:32:00;94864.56;;;5.32;89.73
23164;BME280;31429;42.674;23.350;2024-03-22T00:33:01;94857.00;;;5.31;90.47
23164;BME280;31429;42.674;23.350;2024-03-22T00:34:01;94867.13;;;5.29;90.62
23164;BME280;31429;42.674;23.350;2024-03-22T00:35:03;94866.31;;;5.27;93.78
23164;BME280;31429;42.674;23.350;2024-03-22T00:36:04;94866.41;;;5.21;93.80
23164;BME280;31429;42.674;23.350;2024-03-22T00:37:05;94864.59;;;5.29;93.06
23164;BME280;31429;42.674;23.350;2024-03-22T00:38:07;94875.59;;;5.28;94.23
23164;BME280;31429;42.674;23.350;2024-03-22T00:39:08;94878.13;;;5.28;94.84
23164;BME280;31429;42.674;23.350;2024-03-22T00:40:09;94872.16;;;5.32;95.30
23164;BME280;31429;42.674;23.350;2024-03-22T00:41:10;94863.84;;;5.22;94.50
23164;BME280;31429;42.674;23.350;2024-03-22T00:42:11;94875.09;;;5.08;95.05
23164;BME280;31429;42.674;23.350;2024-03-22T00:43:12;94868.31;;;5.07;95.16
23164;BME280;31429;42.674;23.350;2024-03-22T00:44:12;94869.97;;;5.09;98.86
23164;BME280;31429;42.674;23.350;2024-03-22T00:45:13;94868.09;;;5.22;99.95
23164;BME280;31429;42.674;23.350;2024-03-22T00:46:14;94872.25;;;5.28;97.20
23164;BME280;31429;42.674;23.350;2024-03-22T00:47:15;94866.50;;;5.16;95.65
23164;BME280;31429;42.674;23.350;2024-03-22T00:48:16;94869.88;;;5.15;98.65
23164;BME280;31429;42.674;23.350;2024-03-22T00:49:16;94868.28;;;5.10;96.18
23164;BME280;31429;42.674;23.350;2024-03-22T00:50:17;94862.78;;;4.81;95.69
23164;BME280;31429;42.674;23.350;2024-03-22T00:51:18;94864.41;;;4.86;97.16
23164;BME280;31429;42.674;23.350;2024-03-22T00:52:19;94863.44;;;4.96;97.54
23164;BME280;31429;42.674;23.350;2024-03-22T00:53:21;94869.50;;;4.83;96.98
23164;BME280;31429;42.674;23.350;2024-03-22T00:54:22;94864.53;;;4.77;96.00
23164;BME280;31429;42.674;23.350;2024-03-22T00:55:23;94867.13;;;4.73;99.11
23164;BME280;31429;42.674;23.350;2024-03-22T00:56:23;94858.69;;;4.72;98.40
23164;BME280;31429;42.674;23.350;2024-03-22T00:57:24;94870.59;;;4.65;98.29
23164;BME280;31429;42.674;23.350;2024-03-22T00:58:26;94858.84;;;4.61;98.57
23164;BME280;31429;42.674;23.350;2024-03-22T00:59:27;94853.88;;;4.55;97.10
23164;BME280;31429;42.674;23.350;2024-03-22T01:00:28;94857.28;;;4.51;97.51
23164;BME280;31429;42.674;23.350;2024-03-22T01:01:28;94861.50;;;4.52;98.14
23164;BME280;31429;42.674;23.350;2024-03-22T01:02:29;94865.69;;;4.56;98.38
23164;BME280;31429;42.674;23.350;2024-03-22T01:03:30;94865.38;;;4.79;98.35
23164;BME280;31429;42.674;23.350;2024-03-22T01:04:31;94856.88;;;4.80;96.71
23164;BME280;31429;42.674;23.350;2024-03-22T01:05:31;94862.19;;;4.63;96.43
23164;BME280;31429;42.674;23.350;2024-03-22T01:06:33;94861.34;;;4.63;96.70
23164;BME280;31429;42.674;23.350;2024-03-22T01:07:35;94861.34;;;4.64;97.23
23164;BME280;31429;42.674;23.350;2024-03-22T01:08:37;94858.44;;;4.89;96.82
23164;BME280;31429;42.674;23.350;2024-03-22T01:09:38;94862.84;;;4.78;95.32
23164;BME280;31429;42.674;23.350;2024-03-22T01:10:38;94862.88;;;4.76;95.18
23164;BME280;31429;42.674;23.350;2024-03-22T01:11:39;94863.56;;;4.86;95.76
23164;BME280;31429;42.674;23.350;2024-03-22T01:12:40;94862.78;;;4.82;95.00
23164;BME280;31429;42.674;23.350;2024-03-22T01:13:41;94861.78;;;4.92;94.33
23164;BME280;31429;42.674;23.350;2024-03-22T01:14:42;94860.72;;;5.07;93.89
23164;BME280;31429;42.674;23.350;2024-03-22T01:15:43;94855.66;;;5.05;93.52
23164;BME280;31429;42.674;23.350;2024-03-22T01:16:44;94866.16;;;5.38;93.39
23164;BME280;31429;42.674;23.350;2024-03-22T01:17:45;94858.44;;;5.44;91.18
23164;BME280;31429;42.674;23.350;2024-03-22T01:18:45;94854.88;;;5.54;90.11
23164;BME280;31429;42.674;23.350;2024-03-22T01:19:46;94865.84;;;5.56;88.05
23164;BME280;31429;42.674;23.350;2024-03-22T01:20:47;94853.00;;;5.65;88.12
23164;BME280;31429;42.674;23.350;2024-03-22T01:21:48;94848.75;;;5.65;87.19
23164;BME280;31429;42.674;23.350;2024-03-22T01:22:49;94862.19;;;5.72;87.43
23164;BME280;31429;42.674;23.350;2024-03-22T01:23:51;94857.25;;;5.63;87.71
23164;BME280;31429;42.674;23.350;2024-03-22T01:24:52;94857.00;;;5.31;88.27
23164;BME280;31429;42.674;23.350;2024-03-22T01:25:53;94866.41;;;5.21;89.97
23164;BME280;31429;42.674;23.350;2024-03-22T01:26:54;94854.28;;;5.41;89.99
23164;BME280;31429;42.674;23.350;2024-03-22T01:27:55;94857.13;;;5.70;89.60
23164;BME280;31429;42.674;23.350;2024-03-22T01:28:56;94858.78;;;5.73;87.14
23164;BME280;31429;42.674;23.350;2024-03-22T01:29:57;94851.53;;;6.01;86.80
23164;BME280;31429;42.674;23.350;2024-03-22T01:30:57;94850.22;;;6.26;86.58
23164;BME280;31429;42.674;23.350;2024-03-22T01:31:58;94855.13;;;6.33;83.57
23164;BME280;31429;42.674;23.350;2024-03-22T01:32:59;94858.94;;;6.11;82.42
23164;BME280;31429;42.674;23.350;2024-03-22T01:34:00;94852.78;;;5.77;88.38
23164;BME280;31429;42.674;23.350;2024-03-22T01:35:01;94855.75;;;5.53;90.77
23164;BME280;31429;42.674;23.350;2024-03-22T01:36:01;94855.22;;;5.36;92.67
23164;BME280;31429;42.674;23.350;2024-03-22T01:37:02;94860.31;;;5.31;92.79
23164;BME280;31429;42.674;23.350;2024-03-22T01:38:03;94853.56;;;5.32;91.91
23164;BME280;31429;42.674;23.350;2024-03-22T01:39:05;94862.06;;;5.31;92.86
23164;BME280;31429;42.674;23.350;2024-03-22T01:40:08;94859.66;;;5.21;93.05
23164;BME280;31429;42.674;23.350;2024-03-22T01:41:09;94856.38;;;5.15;96.19
23164;BME280;31429;42.674;23.350;2024-03-22T01:42:09;94860.63;;;5.13;95.02
23164;BME280;31429;42.674;23.350;2024-03-22T01:43:10;94859.03;;;5.07;93.47
23164;BME280;31429;42.674;23.350;2024-03-22T01:44:11;94867.34;;;5.14;96.14
23164;BME280;31429;42.674;23.350;2024-03-22T01:45:14;94860.69;;;5.10;95.64
23164;BME280;31429;42.674;23.350;2024-03-22T01:46:16;94859.84;;;5.09;94.17
23164;BME280;31429;42.674;23.350;2024-03-22T01:47:17;94861.56;;;5.06;94.34
23164;BME280;31429;42.674;23.350;2024-03-22T01:48:17;94865.03;;;5.02;95.25
23164;BME280;31429;42.674;23.350;2024-03-22T01:49:18;94850.75;;;4.96;95.95
23164;BME280;31429;42.674;23.350;2024-03-22T01:50:39;94855.06;;;4.88;96.51
23164;BME280;31429;42.674;23.350;2024-03-22T01:51:41;94849.16;;;4.89;97.65
23164;BME280;31429;42.674;23.350;2024-03-22T01:52:42;94855.97;;;4.87;97.73
23164;BME280;31429;42.674;23.350;2024-03-22T01:53:43;94857.59;;;4.88;97.76
23164;BME280;31429;42.674;23.350;2024-03-22T01:54:45;94853.38;;;4.90;97.45
23164;BME280;31429;42.674;23.350;2024-03-22T01:55:46;94862.72;;;4.87;96.85
23164;BME280;31429;42.674;23.350;2024-03-22T01:56:47;94858.41;;;4.93;100.00
23164;BME280;31429;42.674;23.350;2024-03-22T01:57:48;94860.84;;;4.99;100.00
23164;BME280;31429;42.674;23.350;2024-03-22T01:58:49;94861.69;;;4.97;100.00
23164;BME280;31429;42.674;23.350;2024-03-22T01:59:53;94865.91;;;4.99;100.00
23164;BME280;31429;42.674;23.350;2024-03-22T02:00:56;94867.56;;;5.00;100.00
23164;BME280;31429;42.674;23.350;2024-03-22T02:01:57;94866.69;;;5.03;100.00
23164;BME280;31429;42.674;23.350;2024-03-22T02:02:57;94861.78;;;4.92;100.00
23164;BME280;31429;42.674;23.350;2024-03-22T02:03:58;94861.06;;;4.83;100.00
23164;BME280;31429;42.674;23.350;2024-03-22T02:04:59;94862.88;;;4.76;100.00
23164;BME280;31429;42.674;23.350;2024-03-22T02:06:00;94869.63;;;4.76;100.00
23164;BME280;31429;42.674;23.350;2024-03-22T02:07:00;94865.31;;;4.81;100.00
23164;BME280;31429;42.674;23.350;2024-03-22T02:08:01;94856.97;;;4.76;100.00
23164;BME280;31429;42.674;23.350;2024-03-22T02:09:02;94861.19;;;4.77;100.00
23164;BME280;31429;42.674;23.350;2024-03-22T02:10:07;94864.59;;;4.73;100.00
23164;BME280;31429;42.674;23.350;2024-03-22T02:11:11;94859.63;;;4.67;100.00
23164;BME280;31429;42.674;23.350;2024-03-22T02:12:12;94869.00;;;4.58;100.00
23164;BME280;31429;42.674;23.350;2024-03-22T02:13:12;94858.97;;;4.52;100.00
23164;BME280;31429;42.674;23.350;2024-03-22T02:14:13;94860.56;;;4.59;100.00
23164;BME280;31429;42.674;23.350;2024-03-22T02:15:14;94861.38;;;4.60;100.00
23164;BME280;31429;42.674;23.350;2024-03-22T02:16:16;94861.34;;;4.63;100.00
23164;BME280;31429;42.674;23.350;2024-03-22T02:17:17;94861.34;;;4.63;100.00
23164;BME280;31429;42.674;23.350;2024-03-22T02:18:18;94862.16;;;4.68;100.00
23164;BME280;31429;42.674;23.350;2024-03-22T02:19:18;94863.72;;;4.75;100.00
23164;BME280;31429;42.674;23.350;2024-03-22T02:20:19;94867.91;;;4.78;100.00
23164;BME280;31429;42.674;23.350;2024-03-22T02:21:20;94863.75;;;4.72;100.00
23164;BME280;31429;42.674;23.350;2024-03-22T02:22:21;94860.38;;;4.72;100.00
23164;BME280;31429;42.674;23.350;2024-03-22T02:23:30;94867.97;;;4.72;100.00
23164;BME280;31429;42.674;23.350;2024-03-22T02:24:31;94869.81;;;4.62;100.00
23164;BME280;31429;42.674;23.350;2024-03-22T02:25:32;94871.63;;;4.54;100.00
23164;BME280;31429;42.674;23.350;2024-03-22T02:26:32;94871.63;;;4.52;100.00
23164;BME280;31429;42.674;23.350;2024-03-22T02:27:33;94874.97;;;4.54;100.00
23164;BME280;31429;42.674;23.350;2024-03-22T02:28:35;94874.16;;;4.52;100.00
23164;BME280;31429;42.674;23.350;2024-03-22T02:29:36;94875.03;;;4.50;100.00
23164;BME280;31429;42.674;23.350;2024-03-22T02:30:37;94875.03;;;4.48;100.00
23164;BME280;31429;42.674;23.350;2024-03-22T02:31:37;94877.63;;;4.45;100.00
23164;BME280;31429;42.674;23.350;2024-03-22T02:32:38;94874.34;;;4.37;100.00
23164;BME280;31429;42.674;23.350;2024-03-22T02:33:40;94873.56;;;4.32;100.00
23164;BME280;31429;42.674;23.350;2024-03-22T02:34:41;94877.00;;;4.27;100.00
23164;BME280;31429;42.674;23.350;2024-03-22T02:35:42;94869.47;;;4.22;100.00
23164;BME280;31429;42.674;23.350;2024-03-22T02:36:43;94872.91;;;4.17;100.00
23164;BME280;31429;42.674;23.350;2024-03-22T02:37:44;94877.16;;;4.13;100.00
23164;BME280;31429;42.674;23.350;2024-03-22T02:38:46;94876.31;;;4.13;100.00
23164;BME280;31429;42.674;23.350;2024-03-22T02:39:46;94876.31;;;4.14;100.00
23164;BME280;31429;42.674;23.350;2024-03-22T02:40:48;94871.25;;;4.14;100.00
23164;BME280;31429;42.674;23.350;2024-03-22T02:41:49;94880.53;;;4.14;100.00
23164;BME280;31429;42.674;23.350;2024-03-22T02:42:50;94880.56;;;4.11;100.00
23164;BME280;31429;42.674;23.350;2024-03-22T02:43:50;94882.25;;;4.10;100.00
23164;BME280;31429;42.674;23.350;2024-03-22T02:44:51;94874.69;;;4.07;100.00
23164;BME280;31429;42.674;23.350;2024-03-22T02:45:52;94883.97;;;4.06;100.00
23164;BME280;31429;42.674;23.350;2024-03-22T02:46:53;94886.53;;;4.05;100.00
23164;BME280;31429;42.674;23.350;2024-03-22T02:47:53;94878.94;;;4.03;100.00
23164;BME280;31429;42.674;23.350;2024-03-22T02:48:54;94878.13;;;4.01;100.00
23164;BME280;31429;42.674;23.350;2024-03-22T02:49:55;94883.13;;;4.06;100.00
23164;BME280;31429;42.674;23.350;2024-03-22T02:50:56;94886.44;;;4.14;100.00
23164;BME280;31429;42.674;23.350;2024-03-22T02:51:57;94886.34;;;4.22;100.00
23164;BME280;31429;42.674;23.350;2024-03-22T02:52:57;94889.69;;;4.25;100.00
23164;BME280;31429;42.674;23.350;2024-03-22T02:53:59;94886.22;;;4.32;100.00
23164;BME280;31429;42.674;23.350;2024-03-22T02:55:00;94893.72;;;4.38;100.00
23164;BME280;31429;42.674;23.350;2024-03-22T02:56:01;94899.69;;;4.34;100.00
23164;BME280;31429;42.674;23.350;2024-03-22T02:57:02;94890.44;;;4.33;100.00
23164;BME280;31429;42.674;23.350;2024-03-22T02:58:03;94895.41;;;4.38;100.00
23164;BME280;31429;42.674;23.350;2024-03-22T02:59:04;94897.88;;;4.44;100.00
23164;BME280;31429;42.674;23.350;2024-03-22T03:00:05;94899.56;;;4.43;100.00
23164;BME280;31429;42.674;23.350;2024-03-22T03:01:06;94901.34;;;4.37;100.00
23164;BME280;31429;42.674;23.350;2024-03-22T03:02:07;94899.69;;;4.36;100.00
23164;BME280;31429;42.674;23.350;2024-03-22T03:03:08;94901.31;;;4.38;100.00
23164;BME280;31429;42.674;23.350;2024-03-22T03:04:09;94902.06;;;4.46;100.00
23164;BME280;31429;42.674;23.350;2024-03-22T03:05:09;94904.63;;;4.43;100.00
23164;BME280;31429;42.674;23.350;2024-03-22T03:06:10;94910.53;;;4.44;100.00
23164;BME280;31429;42.674;23.350;2024-03-22T03:07:32;94907.25;;;4.36;100.00
23164;BME280;31429;42.674;23.350;2024-03-22T03:08:32;94904.06;;;4.22;100.00
23164;BME280;31429;42.674;23.350;2024-03-22T03:09:35;94910.00;;;4.19;100.00
23164;BME280;31429;42.674;23.350;2024-03-22T03:10:36;94911.59;;;4.26;100.00
23164;BME280;31429;42.674;23.350;2024-03-22T03:11:37;94905.78;;;4.20;100.00
23164;BME280;31429;42.674;23.350;2024-03-22T03:12:38;94914.31;;;4.11;100.00
23164;BME280;31429;42.674;23.350;2024-03-22T03:13:39;94910.81;;;4.21;100.00
23164;BME280;31429;42.674;23.350;2024-03-22T03:14:40;94912.53;;;4.19;100.00
23164;BME280;31429;42.674;23.350;2024-03-22T03:15:41;94907.59;;;4.07;100.00
23164;BME280;31429;42.674;23.350;2024-03-22T03:16:41;94913.59;;;3.95;100.00
23164;BME280;31429;42.674;23.350;2024-03-22T03:17:42;94914.41;;;3.97;100.00
23164;BME280;31429;42.674;23.350;2024-03-22T03:18:43;94914.47;;;3.93;100.00
23164;BME280;31429;42.674;23.350;2024-03-22T03:19:44;94914.53;;;3.87;100.00
23164;BME280;31429;42.674;23.350;2024-03-22T03:20:44;94913.69;;;3.86;100.00
23164;BME280;31429;42.674;23.350;2024-03-22T03:21:45;94913.69;;;3.86;100.00
23164;BME280;31429;42.674;23.350;2024-03-22T03:22:46;94913.69;;;3.86;100.00
23164;BME280;31429;42.674;23.350;2024-03-22T03:23:47;94912.88;;;3.86;100.00
23164;BME280;31429;42.674;23.350;2024-03-22T03:24:49;94910.25;;;3.92;100.00
23164;BME280;31429;42.674;23.350;2024-03-22T03:25:50;94918.66;;;3.95;100.00
23164;BME280;31429;42.674;23.350;2024-03-22T03:26:50;94917.81;;;3.96;100.00
23164;BME280;31429;42.674;23.350;2024-03-22T03:27:51;94918.66;;;3.95;100.00
23164;BME280;31429;42.674;23.350;2024-03-22T03:28:52;94915.31;;;3.92;100.00
23164;BME280;31429;42.674;23.350;2024-03-22T03:29:53;94919.59;;;3.88;100.00
23164;BME280;31429;42.674;23.350;2024-03-22T03:30:53;94918.72;;;3.89;100.00
23164;BME280;31429;42.674;23.350;2024-03-22T03:31:54;94918.69;;;3.92;100.00
23164;BME280;31429;42.674;23.350;2024-03-22T03:32:55;94918.72;;;3.91;100.00
23164;BME280;31429;42.674;23.350;2024-03-22T03:33:56;94920.38;;;3.92;100.00
23164;BME280;31429;42.674;23.350;2024-03-22T03:34:56;94921.31;;;3.85;100.00
23164;BME280;31429;42.674;23.350;2024-03-22T03:35:57;94921.38;;;3.77;100.00
23164;BME280;31429;42.674;23.350;2024-03-22T03:36:58;94919.81;;;3.63;100.00
23164;BME280;31429;42.674;23.350;2024-03-22T03:38:01;94921.53;;;3.59;100.00
23164;BME280;31429;42.674;23.350;2024-03-22T03:39:02;94920.75;;;3.54;100.00
23164;BME280;31429;42.674;23.350;2024-03-22T03:40:05;94924.13;;;3.55;100.00
23164;BME280;31429;42.674;23.350;2024-03-22T03:41:06;94929.09;;;3.61;100.00
23164;BME280;31429;42.674;23.350;2024-03-22T03:42:07;94925.69;;;3.68;100.00
23164;BME280;31429;42.674;23.350;2024-03-22T03:43:08;94923.97;;;3.70;100.00
23164;BME280;31429;42.674;23.350;2024-03-22T03:44:09;94927.28;;;3.75;100.00
23164;BME280;31429;42.674;23.350;2024-03-22T03:45:09;94934.91;;;3.73;100.00
23164;BME280;31429;42.674;23.350;2024-03-22T03:46:10;94930.69;;;3.74;100.00
23164;BME280;31429;42.674;23.350;2024-03-22T03:47:11;94930.63;;;3.78;100.00
23164;BME280;31429;42.674;23.350;2024-03-22T03:48:12;94934.78;;;3.85;100.00
23164;BME280;31429;42.674;23.350;2024-03-22T03:49:12;94934.72;;;3.90;100.00
23164;BME280;31429;42.674;23.350;2024-03-22T03:50:13;94934.72;;;3.94;100.00
23164;BME280;31429;42.674;23.350;2024-03-22T03:51:14;94932.13;;;3.99;100.00
23164;BME280;31429;42.674;23.350;2024-03-22T03:52:15;94938.03;;;3.99;100.00
23164;BME280;31429;42.674;23.350;2024-03-22T03:53:15;94943.94;;;3.95;100.00
23164;BME280;31429;42.674;23.350;2024-03-22T03:54:16;94944.03;;;3.88;100.00
23164;BME280;31429;42.674;23.350;2024-03-22T03:55:18;94944.88;;;3.87;100.00
23164;BME280;31429;42.674;23.350;2024-03-22T03:56:19;94938.09;;;3.89;100.00
23164;BME280;31429;42.674;23.350;2024-03-22T03:57:20;94934.75;;;3.91;100.00
23164;BME280;31429;42.674;23.350;2024-03-22T03:58:20;94936.34;;;3.98;100.00
23164;BME280;31429;42.674;23.350;2024-03-22T03:59:21;94929.56;;;4.00;100.00
23164;BME280;31429;42.674;23.350;2024-03-22T04:00:22;94936.31;;;4.01;100.00
23164;BME280;31429;42.674;23.350;2024-03-22T04:01:23;94936.34;;;3.98;100.00
23164;BME280;31429;42.674;23.350;2024-03-22T04:02:24;94938.03;;;3.99;100.00
23164;BME280;31429;42.674;23.350;2024-03-22T04:03:25;94935.53;;;3.96;100.00
23164;BME280;31429;42.674;23.350;2024-03-22T04:04:26;94942.25;;;3.96;100.00
23164;BME280;31429;42.674;23.350;2024-03-22T04:05:26;94947.34;;;3.93;100.00
23164;BME280;31429;42.674;23.350;2024-03-22T04:06:27;94940.59;;;3.92;100.00
23164;BME280;31429;42.674;23.350;2024-03-22T04:07:28;94938.97;;;3.86;100.00
23164;BME280;31429;42.674;23.350;2024-03-22T04:08:29;94940.66;;;3.87;100.00
23164;BME280;31429;42.674;23.350;2024-03-22T04:09:33;94939.09;;;3.77;100.00
23164;BME280;31429;42.674;23.350;2024-03-22T04:10:36;94942.44;;;3.76;100.00
23164;BME280;31429;42.674;23.350;2024-03-22T04:11:36;94942.38;;;3.84;100.00
23164;BME280;31429;42.674;23.350;2024-03-22T04:12:38;94944.88;;;3.87;100.00
23164;BME280;31429;42.674;23.350;2024-03-22T04:13:38;94936.34;;;4.00;100.00
23164;BME280;31429;42.674;23.350;2024-03-22T04:14:39;94938.81;;;4.03;100.00
23164;BME280;31429;42.674;23.350;2024-03-22T04:15:40;94934.66;;;3.99;100.00
23164;BME280;31429;42.674;23.350;2024-03-22T04:16:41;94938.84;;;4.01;100.00
23164;BME280;31429;42.674;23.350;2024-03-22T04:17:42;94943.06;;;4.02;100.00
23164;BME280;31429;42.674;23.350;2024-03-22T04:18:42;94943.06;;;4.01;100.00
23164;BME280;31429;42.674;23.350;2024-03-22T04:19:43;94938.91;;;3.95;100.00
23164;BME280;31429;42.674;23.350;2024-03-22T04:20:53;94952.44;;;3.91;100.00
23164;BME280;31429;42.674;23.350;2024-03-22T04:21:54;94948.28;;;3.84;100.00
23164;BME280;31429;42.674;23.350;2024-03-22T04:22:55;94950.03;;;3.75;100.00
23164;BME280;31429;42.674;23.350;2024-03-22T04:23:56;94956.72;;;3.82;100.00
23164;BME280;31429;42.674;23.350;2024-03-22T04:24:56;94957.53;;;3.88;100.00
23164;BME280;31429;42.674;23.350;2024-03-22T04:26:00;94953.28;;;3.90;100.00
23164;BME280;31429;42.674;23.350;2024-03-22T04:27:01;94955.78;;;3.92;100.00
23164;BME280;31429;42.674;23.350;2024-03-22T04:28:03;94954.06;;;3.97;100.00
23164;BME280;31429;42.674;23.350;2024-03-22T04:29:03;94952.34;;;3.97;100.00
23164;BME280;31429;42.674;23.350;2024-03-22T04:30:05;94962.47;;;3.97;100.00
23164;BME280;31429;42.674;23.350;2024-03-22T04:31:26;94962.47;;;3.99;100.00
23164;BME280;31429;42.674;23.350;2024-03-22T04:32:27;94959.16;;;3.94;100.00
23164;BME280;31429;42.674;23.350;2024-03-22T04:33:28;94960.00;;;3.93;100.00
23164;BME280;31429;42.674;23.350;2024-03-22T04:34:29;94961.72;;;3.89;100.00
23164;BME280;31429;42.674;23.350;2024-03-22T04:35:30;94965.91;;;3.89;100.00
23164;BME280;31429;42.674;23.350;2024-03-22T04:36:30;94960.06;;;3.85;100.00
23164;BME280;31429;42.674;23.350;2024-03-22T04:37:32;94962.66;;;3.78;100.00
23164;BME280;31429;42.674;23.350;2024-03-22T04:38:32;94966.13;;;3.66;100.00
23164;BME280;31429;42.674;23.350;2024-03-22T04:39:33;94969.50;;;3.64;100.00
23164;BME280;31429;42.674;23.350;2024-03-22T04:40:34;94979.66;;;3.59;100.00
23164;BME280;31429;42.674;23.350;2024-03-22T04:41:36;94972.13;;;3.53;100.00
23164;BME280;31429;42.674;23.350;2024-03-22T04:42:37;94969.63;;;3.52;100.00
23164;BME280;31429;42.674;23.350;2024-03-22T04:43:38;94973.88;;;3.43;100.00
23164;BME280;31429;42.674;23.350;2024-03-22T04:44:39;94971.41;;;3.40;100.00
23164;BME280;31429;42.674;23.350;2024-03-22T04:45:41;94976.47;;;3.37;100.00
23164;BME280;31429;42.674;23.350;2024-03-22T04:46:42;94979.00;;;3.34;100.00
23164;BME280;31429;42.674;23.350;2024-03-22T04:47:42;94975.63;;;3.37;100.00
23164;BME280;31429;42.674;23.350;2024-03-22T04:48:44;94974.72;;;3.44;100.00
23164;BME280;31429;42.674;23.350;2024-03-22T04:49:44;94977.19;;;3.53;100.00
23164;BME280;31429;42.674;23.350;2024-03-22T04:50:45;94972.06;;;3.61;100.00
23164;BME280;31429;42.674;23.350;2024-03-22T04:51:46;94973.00;;;3.51;100.00
23164;BME280;31429;42.674;23.350;2024-03-22T04:52:47;94978.94;;;3.43;100.00
23164;BME280;31429;42.674;23.350;2024-03-22T04:53:48;94975.59;;;3.40;100.00
23164;BME280;31429;42.674;23.350;2024-03-22T04:54:49;94976.47;;;3.33;100.00
23164;BME280;31429;42.674;23.350;2024-03-22T04:55:50;94972.28;;;3.30;100.00
23164;BME280;31429;42.674;23.350;2024-03-22T04:56:52;94977.34;;;3.30;100.00
23164;BME280;31429;42.674;23.350;2024-03-22T04:57:53;94978.22;;;3.28;100.00
23164;BME280;31429;42.674;23.350;2024-03-22T05:00:14;94975.59;;;3.40;100.00
23164;BME280;31429;42.674;23.350;2024-03-22T05:01:15;94978.88;;;3.49;100.00
23164;BME280;31429;42.674;23.350;2024-03-22T05:02:16;94976.28;;;3.59;100.00
23164;BME280;31429;42.674;23.350;2024-03-22T05:03:18;94977.16;;;3.59;100.00
23164;BME280;31429;42.674;23.350;2024-03-22T05:04:19;94983.88;;;3.60;100.00
23164;BME280;31429;42.674;23.350;2024-03-22T05:05:20;94981.28;;;3.66;100.00
23164;BME280;31429;42.674;23.350;2024-03-22T05:06:21;94982.88;;;3.78;100.00
23164;BME280;31429;42.674;23.350;2024-03-22T05:07:21;94986.22;;;3.83;100.00
23164;BME280;31429;42.674;23.350;2024-03-22T05:08:22;94987.94;;;3.79;100.00
23164;BME280;31429;42.674;23.350;2024-03-22T05:09:23;94983.75;;;3.75;100.00
23164;BME280;31429;42.674;23.350;2024-03-22T05:10:23;94980.25;;;3.90;100.00
23164;BME280;31429;42.674;23.350;2024-03-22T05:11:24;94979.34;;;4.00;100.00
23164;BME280;31429;42.674;23.350;2024-03-22T05:12:26;94988.59;;;3.98;100.00
23164;BME280;31429;42.674;23.350;2024-03-22T05:13:27;94988.59;;;3.98;100.00
23164;BME280;31429;42.674;23.350;2024-03-22T05:14:28;94991.97;;;4.00;100.00
23164;BME280;31429;42.674;23.350;2024-03-22T05:15:29;94986.91;;;3.98;100.00
23164;BME280;31429;42.674;23.350;2024-03-22T05:16:29;94986.91;;;3.98;100.00
23164;BME280;31429;42.674;23.350;2024-03-22T05:17:30;94990.31;;;3.96;100.00
23164;BME280;31429;42.674;23.350;2024-03-22T05:18:34;94992.03;;;3.94;100.00
23164;BME280;31429;42.674;23.350;2024-03-22T05:19:35;94986.94;;;3.97;100.00
23164;BME280;31429;42.674;23.350;2024-03-22T05:20:35;94990.34;;;3.94;100.00
23164;BME280;31429;42.674;23.350;2024-03-22T05:21:36;94994.53;;;3.97;100.00
23164;BME280;31429;42.674;23.350;2024-03-22T05:22:37;94989.41;;;4.03;100.00